createdAt,value
2022-10-23T00:01:19.136Z,5.85
2022-10-23T00:03:47.126Z,4.97
2022-10-23T00:06:14.900Z,5.05
2022-10-23T00:08:41.927Z,5.78
2022-10-23T00:11:11.678Z,5.32
2022-10-23T00:13:38.628Z,6.30
2022-10-23T00:16:06.027Z,6.15
2022-10-23T00:18:33.262Z,6.20
2022-10-23T00:20:59.810Z,5.65
2022-10-23T00:23:26.383Z,6.15
2022-10-23T00:25:53.007Z,5.53
2022-10-23T00:28:19.649Z,5.35
2022-10-23T00:30:46.329Z,5.78
2022-10-23T00:33:12.888Z,6.30
2022-10-23T00:35:40.715Z,4.63
2022-10-23T00:38:08.250Z,5.53
2022-10-23T00:40:36.127Z,5.45
2022-10-23T00:43:03.359Z,5.50
2022-10-23T00:45:33.430Z,4.97
2022-10-23T00:48:03.922Z,5.67
2022-10-23T00:50:32.756Z,4.88
2022-10-23T00:53:02.501Z,5.45
2022-10-23T00:55:30.410Z,6.07
2022-10-23T00:57:56.970Z,6.63
2022-10-23T01:00:26.598Z,5.03
2022-10-23T01:02:54.964Z,5.15
2022-10-23T01:05:36.158Z,5.63
2022-10-23T01:08:10.492Z,4.90
2022-10-23T01:10:42.616Z,5.07
2022-10-23T01:13:16.775Z,4.50
2022-10-23T01:15:59.086Z,5.90
2022-10-23T01:18:56.599Z,5.43
2022-10-23T01:21:39.072Z,6.35
2022-10-23T01:24:37.414Z,5.65
2022-10-23T01:27:14.970Z,5.57
2022-10-23T01:29:47.051Z,5.22
2022-10-23T01:32:20.236Z,4.72
2022-10-23T01:34:56.334Z,4.95
2022-10-23T01:37:45.223Z,5.50
2022-10-23T01:40:25.827Z,5.18
2022-10-23T01:42:57.396Z,5.32
2022-10-23T01:45:39.119Z,4.35
2022-10-23T01:48:08.970Z,5.18
2022-10-23T01:50:37.675Z,4.65
2022-10-23T01:53:05.021Z,4.70
2022-10-23T01:55:33.512Z,4.88
2022-10-23T01:58:02.647Z,5.97
2022-10-23T02:00:29.952Z,4.68
2022-10-23T02:02:58.691Z,5.25
2022-10-23T02:05:27.674Z,5.90
2022-10-23T02:07:54.901Z,4.85
2022-10-23T02:10:24.960Z,6.80
2022-10-23T02:13:08.593Z,5.40
2022-10-23T02:16:10.385Z,6.57
2022-10-23T02:18:52.009Z,5.72
2022-10-23T02:21:27.760Z,5.50
2022-10-23T02:23:56.671Z,5.35
2022-10-23T02:26:38.357Z,5.50
2022-10-23T02:29:12.509Z,4.18
2022-10-23T02:31:39.239Z,4.78
2022-10-23T02:34:06.123Z,4.88
2022-10-23T02:36:32.910Z,4.82
2022-10-23T02:38:59.639Z,4.90
2022-10-23T02:42:03.713Z,4.85
2022-10-23T02:44:49.765Z,4.60
2022-10-23T02:47:19.322Z,4.95
2022-10-23T02:50:22.950Z,4.70
2022-10-23T02:53:04.053Z,4.93
2022-10-23T02:55:42.445Z,3.85
2022-10-23T02:58:11.681Z,4.47
2022-10-23T03:00:42.822Z,4.18
2022-10-23T03:05:40.770Z,4.30
2022-10-23T03:08:12.055Z,4.05
2022-10-23T03:10:39.165Z,5.00
2022-10-23T03:13:05.879Z,5.63
2022-10-23T03:15:32.575Z,4.50
2022-10-23T03:17:59.127Z,5.47
2022-10-23T03:20:25.783Z,5.15
2022-10-23T03:22:52.419Z,4.50
2022-10-23T03:25:19.138Z,5.03
2022-10-23T03:27:45.651Z,4.72
2022-10-23T03:30:12.827Z,4.20
2022-10-23T03:32:39.574Z,5.25
2022-10-23T03:35:06.555Z,4.38
2022-10-23T03:37:33.108Z,4.13
2022-10-23T03:39:59.660Z,4.28
2022-10-23T03:42:26.372Z,5.00
2022-10-23T03:44:52.938Z,4.40
2022-10-23T03:47:19.540Z,4.88
2022-10-23T03:49:46.178Z,5.07
2022-10-23T03:52:12.786Z,4.35
2022-10-23T03:54:39.556Z,4.22
2022-10-23T03:57:06.128Z,4.22
2022-10-23T03:59:32.820Z,5.32
2022-10-23T04:01:59.431Z,5.25
2022-10-23T04:04:26.156Z,6.07
2022-10-23T04:06:53.042Z,6.10
2022-10-23T04:09:19.599Z,6.35
2022-10-23T04:11:46.240Z,5.93
2022-10-23T04:14:13.470Z,5.95
2022-10-23T04:16:40.467Z,4.97
2022-10-23T04:19:07.190Z,5.50
2022-10-23T04:21:33.867Z,4.40
2022-10-23T04:24:00.410Z,4.80
2022-10-23T04:26:27.190Z,5.10
2022-10-23T04:28:53.781Z,5.03
2022-10-23T04:31:20.426Z,5.45
2022-10-23T04:33:47.399Z,5.97
2022-10-23T04:36:14.008Z,5.05
2022-10-23T04:38:40.574Z,5.93
2022-10-23T04:41:07.339Z,6.25
2022-10-23T04:43:33.895Z,5.63
2022-10-23T04:46:00.464Z,5.30
2022-10-23T04:48:29.113Z,8.25
2022-10-23T04:50:58.040Z,6.30
2022-10-23T04:53:25.615Z,6.07
2022-10-23T04:55:54.378Z,5.30
2022-10-23T04:58:22.237Z,6.82
2022-10-23T05:00:49.571Z,4.63
2022-10-23T05:03:17.427Z,4.45
2022-10-23T05:05:44.074Z,4.97
2022-10-23T05:08:14.234Z,4.10
2022-10-23T05:10:43.695Z,4.35
2022-10-23T05:13:10.283Z,4.50
2022-10-23T05:15:36.863Z,4.38
2022-10-23T05:18:11.965Z,5.63
2022-10-23T05:20:39.927Z,6.82
2022-10-23T05:23:10.986Z,6.30
2022-10-23T05:28:04.471Z,4.97
2022-10-23T05:30:33.140Z,5.25
2022-10-23T05:33:02.016Z,5.93
2022-10-23T05:35:30.423Z,6.85
2022-10-23T05:37:58.967Z,5.95
2022-10-23T05:40:26.376Z,5.63
2022-10-23T05:42:52.947Z,5.25
2022-10-23T05:45:20.027Z,5.65
2022-10-23T05:47:46.611Z,6.63
2022-10-23T05:50:13.693Z,7.57
2022-10-23T05:52:40.395Z,6.72
2022-10-23T05:55:07.512Z,7.18
2022-10-23T05:57:34.382Z,7.15
2022-10-23T06:00:01.250Z,7.70
2022-10-23T06:02:28.220Z,8.95
2022-10-23T06:04:54.768Z,7.80
2022-10-23T06:07:31.308Z,7.18
2022-10-23T06:10:00.426Z,6.82
2022-10-23T06:12:27.198Z,6.57
2022-10-23T06:14:53.902Z,6.97
2022-10-23T06:17:20.458Z,7.25
2022-10-23T06:19:47.123Z,6.22
2022-10-23T06:22:13.898Z,6.13
2022-10-23T06:24:40.536Z,5.75
2022-10-23T06:27:07.105Z,6.05
2022-10-23T06:29:33.787Z,5.63
2022-10-23T06:32:00.322Z,6.10
2022-10-23T06:34:26.933Z,5.68
2022-10-23T06:36:53.685Z,5.75
2022-10-23T06:39:22.091Z,6.40
2022-10-23T06:41:48.645Z,7.85
2022-10-23T06:44:15.726Z,5.75
2022-10-23T06:46:42.466Z,5.95
2022-10-23T06:49:09.009Z,7.25
2022-10-23T06:51:35.686Z,5.97
2022-10-23T06:54:02.418Z,5.63
2022-10-23T06:56:30.407Z,5.50
2022-10-23T06:58:57.068Z,4.88
2022-10-23T07:01:23.738Z,4.68
2022-10-23T07:03:50.442Z,6.38
2022-10-23T07:06:16.971Z,4.90
2022-10-23T07:08:43.493Z,4.40
2022-10-23T07:11:13.680Z,5.47
2022-10-23T07:13:40.720Z,6.97
2022-10-23T07:16:15.302Z,5.82
2022-10-23T07:18:42.151Z,6.60
2022-10-23T07:21:09.568Z,6.43
2022-10-23T07:23:36.751Z,6.05
2022-10-23T07:26:15.238Z,6.15
2022-10-23T07:28:44.163Z,5.85
2022-10-23T07:31:11.147Z,6.30
2022-10-23T07:33:37.760Z,5.25
2022-10-23T07:36:06.617Z,5.35
2022-10-23T07:38:33.694Z,5.53
2022-10-23T07:41:00.869Z,6.15
2022-10-23T07:43:28.090Z,6.57
2022-10-23T07:45:55.128Z,5.70
2022-10-23T07:48:23.911Z,5.82
2022-10-23T07:50:51.262Z,5.57
2022-10-23T07:53:22.080Z,3.30
2022-10-23T07:55:54.042Z,2.72
2022-10-23T07:58:21.011Z,2.78
2022-10-23T08:01:00.329Z,4.78
2022-10-23T08:03:32.323Z,4.65
2022-10-23T08:05:59.586Z,5.47
2022-10-23T08:08:26.985Z,5.15
2022-10-23T08:10:55.254Z,2.40
2022-10-23T08:13:22.324Z,2.38
2022-10-23T08:15:51.432Z,2.58
2022-10-23T08:18:18.246Z,2.92
2022-10-23T08:20:47.706Z,2.17
2022-10-23T08:23:18.437Z,2.88
2022-10-23T08:25:45.720Z,2.60
2022-10-23T08:28:12.436Z,2.30
2022-10-23T08:30:39.032Z,2.05
2022-10-23T08:33:06.805Z,2.50
2022-10-23T08:35:37.787Z,3.90
2022-10-23T08:38:05.626Z,7.55
2022-10-23T08:40:32.628Z,6.43
2022-10-23T08:43:10.455Z,5.70
2022-10-23T08:45:48.787Z,5.03
2022-10-23T08:48:42.943Z,4.68
2022-10-23T08:51:22.224Z,3.08
2022-10-23T08:54:03.199Z,3.58
2022-10-23T08:56:34.813Z,3.60
2022-10-23T08:59:28.268Z,4.25
2022-10-23T09:02:22.963Z,4.18
2022-10-23T09:04:52.247Z,3.65
2022-10-23T09:07:29.689Z,3.20
2022-10-23T09:10:02.031Z,2.83
2022-10-23T09:12:30.810Z,2.92
2022-10-23T09:15:28.447Z,2.30
2022-10-23T09:17:59.725Z,2.35
2022-10-23T09:20:34.545Z,2.33
2022-10-23T09:23:20.939Z,2.30
2022-10-23T09:25:49.138Z,1.98
2022-10-23T09:28:40.238Z,1.77
2022-10-23T09:31:08.904Z,2.60
2022-10-23T09:33:37.138Z,2.40
2022-10-23T09:36:06.867Z,2.20
2022-10-23T09:38:39.873Z,3.08
2022-10-23T09:41:27.871Z,2.90
2022-10-23T09:44:39.894Z,2.47
2022-10-23T09:47:06.544Z,2.60
2022-10-23T09:49:34.279Z,4.32
2022-10-23T09:52:05.925Z,3.47
2022-10-23T09:54:36.685Z,2.40
2022-10-23T09:57:24.904Z,4.18
2022-10-23T09:59:54.438Z,3.20
2022-10-23T10:02:20.979Z,3.00
2022-10-23T10:04:47.594Z,3.15
2022-10-23T10:07:31.239Z,3.00
2022-10-23T10:10:00.207Z,2.50
2022-10-23T10:12:39.284Z,6.50
2022-10-23T10:15:08.654Z,6.18
2022-10-23T10:17:42.367Z,14.02
2022-10-23T10:20:20.885Z,9.48
2022-10-23T10:22:56.139Z,2.78
2022-10-23T10:25:34.406Z,3.20
2022-10-23T10:28:38.590Z,3.33
2022-10-23T10:31:18.142Z,3.97
2022-10-23T10:33:53.870Z,3.63
2022-10-23T10:39:03.235Z,3.47
2022-10-23T10:41:44.752Z,3.25
2022-10-23T10:44:16.967Z,3.10
2022-10-23T10:46:59.133Z,2.80
2022-10-23T10:49:48.716Z,3.28
2022-10-23T10:52:43.233Z,3.60
2022-10-23T10:55:19.234Z,2.95
2022-10-23T10:57:59.227Z,2.97
2022-10-23T11:00:29.883Z,3.15
2022-10-23T11:03:37.597Z,2.92
2022-10-23T11:06:15.068Z,3.35
2022-10-23T11:08:56.416Z,2.72
2022-10-23T11:11:40.555Z,2.80
2022-10-23T11:14:16.740Z,3.20
2022-10-23T11:16:48.029Z,2.75
2022-10-23T11:19:25.605Z,2.72
2022-10-23T11:22:04.900Z,3.47
2022-10-23T11:24:50.788Z,3.13
2022-10-23T11:27:18.898Z,3.33
2022-10-23T11:30:13.963Z,3.22
2022-10-23T11:33:01.065Z,3.63
2022-10-23T11:35:48.268Z,3.53
2022-10-23T11:38:34.416Z,3.55
2022-10-23T11:41:04.940Z,3.72
2022-10-23T11:43:47.639Z,3.22
2022-10-23T11:46:32.182Z,3.65
2022-10-23T11:49:02.505Z,3.33
2022-10-23T11:51:36.643Z,3.80
2022-10-23T11:54:13.470Z,5.95
2022-10-23T11:57:10.429Z,3.72
2022-10-23T11:59:53.551Z,3.35
2022-10-23T12:02:38.755Z,3.70
2022-10-23T12:05:34.963Z,4.35
2022-10-23T12:08:04.648Z,3.92
2022-10-23T12:10:34.988Z,3.58
2022-10-23T12:13:04.908Z,3.50
2022-10-23T12:15:35.154Z,4.70
2022-10-23T12:18:15.768Z,4.40
2022-10-23T12:21:01.804Z,5.20
2022-10-23T12:23:49.742Z,4.82
2022-10-23T12:26:40.315Z,3.92
2022-10-23T12:29:31.862Z,4.38
2022-10-23T12:32:19.994Z,4.30
2022-10-23T12:35:05.305Z,5.57
2022-10-23T12:37:49.426Z,6.20
2022-10-23T12:40:16.357Z,4.82
2022-10-23T12:42:52.646Z,4.20
2022-10-23T12:45:24.020Z,4.32
2022-10-23T12:47:52.556Z,5.15
2022-10-23T12:50:30.764Z,5.07
2022-10-23T12:53:03.190Z,4.35
2022-10-23T12:56:05.172Z,6.18
2022-10-23T12:58:34.665Z,4.97
2022-10-23T13:01:04.201Z,5.47
2022-10-23T13:03:33.236Z,4.43
2022-10-23T13:06:04.783Z,5.45
2022-10-23T13:08:41.253Z,5.05
2022-10-23T13:11:14.323Z,4.95
2022-10-23T13:13:41.575Z,5.03
2022-10-23T13:16:27.759Z,6.00
2022-10-23T13:18:54.523Z,5.78
2022-10-23T13:21:29.443Z,5.32
2022-10-23T14:02:25.926Z,6.20
2022-10-23T14:04:52.815Z,5.20
2022-10-23T14:07:19.596Z,7.00
2022-10-23T14:09:46.407Z,7.05
2022-10-23T14:12:13.637Z,6.03
2022-10-23T14:14:40.325Z,5.88
2022-10-23T14:17:07.281Z,5.53
2022-10-23T14:19:34.434Z,6.45
2022-10-23T14:22:01.111Z,8.32
2022-10-23T14:24:27.761Z,6.55
2022-10-23T14:26:54.589Z,6.55
2022-10-23T14:29:24.055Z,6.53
2022-10-23T14:31:51.257Z,6.78
2022-10-23T14:34:18.091Z,7.82
2022-10-23T14:36:50.350Z,7.63
2022-10-23T14:39:18.210Z,5.60
2022-10-23T14:41:44.794Z,6.95
2022-10-23T14:44:11.396Z,7.65
2022-10-23T14:46:38.675Z,6.53
2022-10-23T14:49:05.715Z,6.97
2022-10-23T14:51:33.105Z,6.75
2022-10-23T14:54:04.837Z,6.32
2022-10-23T14:56:34.157Z,5.72
2022-10-23T14:59:04.152Z,5.82
2022-10-23T15:01:38.125Z,6.70
2022-10-23T15:04:06.548Z,6.63
2022-10-23T15:06:34.695Z,6.43
2022-10-23T15:09:02.304Z,5.50
2022-10-23T15:11:28.956Z,7.22
2022-10-23T15:13:56.275Z,8.05
2022-10-23T15:16:23.731Z,7.45
2022-10-23T15:18:50.604Z,6.32
2022-10-23T15:21:17.228Z,7.60
2022-10-23T15:23:45.617Z,5.63
2022-10-23T15:26:20.318Z,6.72
2022-10-23T15:28:58.070Z,6.30
2022-10-23T15:31:49.109Z,7.93
2022-10-23T15:36:47.020Z,7.25
2022-10-23T15:39:16.245Z,6.88
2022-10-23T15:41:43.770Z,7.60
2022-10-23T15:44:14.388Z,7.72
2022-10-23T15:46:41.342Z,7.57
2022-10-23T15:49:11.403Z,10.55
2022-10-23T15:51:38.963Z,10.57
2022-10-23T15:54:07.191Z,6.65
2022-10-23T15:56:35.139Z,8.75
2022-10-23T15:59:01.710Z,7.63
2022-10-23T16:01:28.982Z,7.38
2022-10-23T16:03:55.708Z,7.88
2022-10-23T16:06:22.428Z,8.88
2022-10-23T16:08:49.067Z,8.23
2022-10-23T16:11:23.056Z,6.05
2022-10-23T16:13:50.210Z,6.05
2022-10-23T16:16:18.341Z,6.60
2022-10-23T16:18:45.240Z,7.15
2022-10-23T16:21:20.702Z,6.80
2022-10-23T16:23:48.137Z,6.05
2022-10-23T16:26:15.682Z,7.05
2022-10-23T16:28:43.894Z,7.07
2022-10-23T16:31:20.003Z,6.78
2022-10-23T16:33:48.017Z,6.35
2022-10-23T16:36:14.771Z,7.20
2022-10-23T16:38:41.667Z,6.68
2022-10-23T16:41:08.263Z,7.45
2022-10-23T16:43:34.905Z,8.60
2022-10-23T16:46:12.554Z,8.57
2022-10-23T16:48:40.078Z,9.50
2022-10-23T16:51:08.681Z,7.65
2022-10-23T16:53:35.841Z,7.50
2022-10-23T16:56:07.080Z,5.95
2022-10-23T16:58:34.590Z,8.23
2022-10-23T17:01:07.526Z,7.32
2022-10-23T17:03:36.872Z,8.18
2022-10-23T17:06:08.764Z,7.38
2022-10-23T17:08:37.005Z,8.18
2022-10-23T17:11:18.833Z,6.55
2022-10-23T17:13:59.269Z,6.68
2022-10-23T17:16:37.261Z,5.30
2022-10-23T17:19:16.038Z,4.65
2022-10-23T17:21:54.936Z,5.25
2022-10-23T17:24:22.915Z,3.90
2022-10-23T17:26:49.692Z,5.00
2022-10-23T17:29:16.924Z,3.65
2022-10-23T17:31:46.353Z,4.95
2022-10-23T17:34:17.437Z,3.47
2022-10-23T17:36:46.880Z,4.10
2022-10-23T17:39:16.883Z,6.68
2022-10-23T17:41:44.455Z,7.43
2022-10-23T17:44:11.701Z,6.88
2022-10-23T17:46:38.368Z,6.32
2022-10-23T17:49:05.829Z,4.03
2022-10-23T17:51:34.408Z,4.13
2022-10-23T17:54:03.633Z,4.20
2022-10-23T17:56:33.198Z,3.13
2022-10-23T17:59:03.930Z,3.78
2022-10-23T18:01:31.667Z,3.42
2022-10-23T18:04:01.895Z,4.70
2022-10-23T18:06:33.067Z,5.20
2022-10-23T18:09:00.952Z,4.97
2022-10-23T18:11:33.248Z,6.75
2022-10-23T18:14:01.216Z,4.60
2022-10-23T18:16:28.607Z,3.95
2022-10-23T18:18:55.612Z,4.28
2022-10-23T18:21:23.852Z,3.67
2022-10-23T18:23:51.489Z,4.90
2022-10-23T18:26:21.723Z,3.60
2022-10-23T18:28:50.043Z,4.50
2022-10-23T18:31:17.881Z,4.35
2022-10-23T18:33:44.764Z,4.07
2022-10-23T18:36:21.798Z,4.00
2022-10-23T18:38:49.570Z,4.50
2022-10-23T18:41:17.297Z,4.13
2022-10-23T18:43:44.781Z,4.78
2022-10-23T18:46:14.993Z,4.18
2022-10-23T18:48:43.411Z,4.67
2022-10-23T18:51:15.910Z,3.75
2022-10-23T18:53:45.793Z,4.70
2022-10-23T18:56:13.540Z,4.75
2022-10-23T18:58:40.348Z,3.72
2022-10-23T19:01:07.183Z,4.10
2022-10-23T19:03:33.996Z,3.40
2022-10-23T19:06:00.658Z,3.75
2022-10-23T19:08:27.570Z,3.63
2022-10-23T19:10:57.395Z,3.60
2022-10-23T19:13:23.975Z,4.05
2022-10-23T19:15:50.524Z,3.50
2022-10-23T19:18:17.525Z,4.20
2022-10-23T19:20:44.619Z,4.00
2022-10-23T19:23:13.955Z,4.30
2022-10-23T19:25:45.478Z,4.28
2022-10-23T19:28:12.067Z,3.45
2022-10-23T19:30:39.616Z,4.10
2022-10-23T19:33:06.309Z,5.18
2022-10-23T19:35:32.934Z,4.10
2022-10-23T19:37:59.546Z,3.90
2022-10-23T19:40:26.291Z,3.78
2022-10-23T19:42:54.303Z,3.65
2022-10-23T19:45:21.031Z,3.50
2022-10-23T19:47:47.988Z,3.88
2022-10-23T19:50:16.106Z,3.97
2022-10-23T19:52:42.675Z,3.53
2022-10-23T19:55:09.612Z,3.85
2022-10-23T19:57:37.173Z,3.17
2022-10-23T20:00:07.982Z,3.40
2022-10-23T20:05:05.406Z,3.83
2022-10-23T20:07:32.874Z,3.42
2022-10-23T20:10:00.464Z,3.60
2022-10-23T20:12:27.614Z,4.03
2022-10-23T20:14:55.061Z,4.03
2022-10-23T20:17:22.817Z,4.65
2022-10-23T20:19:49.975Z,4.10
2022-10-23T20:22:16.904Z,4.40
2022-10-23T20:24:43.526Z,4.13
2022-10-23T20:27:13.366Z,4.78
2022-10-23T20:29:40.746Z,5.05
2022-10-23T20:32:07.405Z,4.50
2022-10-23T20:34:34.556Z,4.40
2022-10-23T20:37:01.216Z,4.68
2022-10-23T20:39:29.863Z,4.45
2022-10-23T20:41:57.036Z,4.00
2022-10-23T20:44:24.675Z,4.60
2022-10-23T20:46:52.181Z,4.32
2022-10-23T20:49:19.524Z,4.40
2022-10-23T20:51:54.084Z,6.55
2022-10-23T20:54:24.197Z,4.10
2022-10-23T20:56:50.740Z,5.35
2022-10-23T20:59:19.368Z,5.43
2022-10-23T21:01:53.321Z,3.80
2022-10-23T21:04:28.494Z,4.43
2022-10-23T21:07:12.833Z,5.05
2022-10-23T21:09:40.271Z,4.13
2022-10-23T21:12:07.052Z,5.50
2022-10-23T21:14:34.151Z,4.25
2022-10-23T21:17:00.784Z,4.70
2022-10-23T21:19:27.449Z,4.03
2022-10-23T21:21:54.471Z,5.03
2022-10-23T21:24:21.289Z,5.93
2022-10-23T21:26:48.057Z,4.60
2022-10-23T21:29:19.361Z,4.90
2022-10-23T21:31:59.274Z,4.22
2022-10-23T21:34:26.597Z,3.97
2022-10-23T21:37:11.997Z,5.05
2022-10-23T21:39:41.011Z,5.95
2022-10-23T21:42:08.159Z,4.47
2022-10-23T21:44:34.751Z,5.68
2022-10-23T21:47:01.408Z,5.90
2022-10-23T21:49:27.988Z,5.00
2022-10-23T21:51:55.211Z,5.93
2022-10-23T21:54:22.050Z,4.65
2022-10-23T21:56:51.413Z,5.35
2022-10-23T21:59:19.896Z,6.43
2022-10-23T22:01:48.298Z,4.90
2022-10-23T22:04:19.873Z,5.28
2022-10-23T22:06:47.980Z,5.20
2022-10-23T22:09:19.567Z,5.60
2022-10-23T22:11:48.407Z,4.75
2022-10-23T22:14:15.159Z,5.20
2022-10-23T22:16:42.196Z,4.85
2022-10-23T22:19:12.372Z,4.65
2022-10-23T22:21:39.467Z,5.43
2022-10-23T22:24:06.613Z,6.15
2022-10-23T22:26:36.565Z,5.38
2022-10-23T22:29:10.199Z,5.60
2022-10-23T22:31:38.317Z,5.13
2022-10-23T22:34:18.674Z,5.32
2022-10-23T22:36:54.701Z,5.82
2022-10-23T22:39:21.468Z,5.15
2022-10-23T22:41:48.079Z,5.75
2022-10-23T22:44:15.519Z,4.90
2022-10-23T22:46:42.338Z,5.22
2022-10-23T22:49:09.451Z,4.68
2022-10-23T22:51:37.243Z,5.60
2022-10-23T22:54:03.812Z,5.35
2022-10-23T22:56:30.819Z,4.90
2022-10-23T22:58:58.390Z,5.50
2022-10-23T23:01:28.069Z,5.60
2022-10-23T23:03:54.854Z,5.38
2022-10-23T23:06:22.495Z,5.38
2022-10-23T23:08:50.815Z,5.22
2022-10-23T23:11:19.701Z,5.55
2022-10-23T23:13:47.099Z,5.53
2022-10-23T23:16:28.473Z,4.97
2022-10-23T23:18:58.375Z,5.18
2022-10-23T23:21:25.640Z,6.18
2022-10-23T23:23:52.238Z,4.97
2022-10-23T23:26:21.248Z,5.18
2022-10-23T23:28:51.851Z,6.38
2022-10-23T23:31:22.199Z,5.82
2022-10-23T23:33:48.981Z,5.07
2022-10-23T23:36:19.664Z,4.88
2022-10-23T23:38:46.323Z,5.47
2022-10-23T23:41:15.551Z,5.55
2022-10-23T23:43:43.096Z,5.00
2022-10-23T23:46:10.813Z,5.50
2022-10-23T23:48:38.304Z,6.00
2022-10-23T23:51:05.792Z,6.15
2022-10-23T23:53:32.470Z,5.93
2022-10-23T23:55:59.217Z,5.13
2022-10-23T23:58:25.768Z,5.80
